createdAt,value
2018-09-05T00:03:39.994Z,7.30
2018-09-05T00:08:43.137Z,6.77
2018-09-05T00:13:46.241Z,7.93
2018-09-05T00:18:49.418Z,10.13
2018-09-05T00:23:52.542Z,9.70
2018-09-05T00:28:55.649Z,6.93
2018-09-05T00:33:58.865Z,7.83
2018-09-05T00:39:01.993Z,7.80
2018-09-05T00:44:05.125Z,8.67
2018-09-05T00:49:08.235Z,8.63
2018-09-05T00:54:11.352Z,7.13
2018-09-05T00:59:16.323Z,17.00
2018-09-05T01:04:19.455Z,15.47
2018-09-05T01:09:22.569Z,15.13
2018-09-05T01:14:25.684Z,20.90
2018-09-05T01:19:28.821Z,19.37
2018-09-05T01:24:31.947Z,23.87
2018-09-05T01:29:36.429Z,24.60
2018-09-05T01:34:41.273Z,28.73
2018-09-05T01:39:44.430Z,23.73
2018-09-05T01:44:47.566Z,25.63
2018-09-05T01:49:50.685Z,25.70
2018-09-05T01:54:53.804Z,25.47
2018-09-05T01:59:56.931Z,27.50
2018-09-05T02:05:00.050Z,27.43
2018-09-05T02:10:03.177Z,27.90
2018-09-05T02:15:06.330Z,30.67
2018-09-05T02:20:09.447Z,27.63
2018-09-05T02:25:12.537Z,27.23
2018-09-05T02:30:15.741Z,29.87
2018-09-05T02:35:18.844Z,32.50
2018-09-05T02:40:22.000Z,38.93
2018-09-05T02:45:25.110Z,28.67
2018-09-05T02:50:28.243Z,28.97
2018-09-05T02:55:36.941Z,35.20
2018-09-05T03:00:40.044Z,33.27
2018-09-05T03:05:43.148Z,34.93
2018-09-05T03:10:46.254Z,26.93
2018-09-05T03:15:49.418Z,29.40
2018-09-05T03:20:52.521Z,27.67
2018-09-05T03:25:56.801Z,28.00
2018-09-05T03:30:59.898Z,25.27
2018-09-05T03:36:02.979Z,29.40
2018-09-05T03:41:06.338Z,28.40
2018-09-05T03:46:09.420Z,30.77
2018-09-05T03:51:12.542Z,25.80
2018-09-05T03:56:15.630Z,23.10
2018-09-05T04:01:18.714Z,23.73
2018-09-05T04:06:23.591Z,21.30
2018-09-05T04:11:26.741Z,20.63
2018-09-05T04:16:29.815Z,22.03
2018-09-05T04:21:39.490Z,24.47
2018-09-05T04:26:42.574Z,21.63
2018-09-05T04:31:45.714Z,23.03
2018-09-05T04:36:48.830Z,20.40
2018-09-05T04:41:51.925Z,18.17
2018-09-05T04:46:55.027Z,18.47
2018-09-05T04:51:58.141Z,20.50
2018-09-05T04:57:01.469Z,23.43
2018-09-05T05:02:04.590Z,23.03
2018-09-05T05:07:07.700Z,24.03
2018-09-05T05:12:10.799Z,22.43
2018-09-05T05:17:13.910Z,22.03
2018-09-05T05:22:17.025Z,43.20
2018-09-05T05:27:20.123Z,22.57
2018-09-05T05:32:23.247Z,19.80
2018-09-05T05:37:26.361Z,26.13
2018-09-05T05:42:29.461Z,23.53
2018-09-05T05:47:33.357Z,20.30
2018-09-05T05:52:36.474Z,24.30
2018-09-05T05:57:39.580Z,24.13
2018-09-05T06:02:42.694Z,20.17
2018-09-05T06:07:45.794Z,27.00
2018-09-05T06:12:48.905Z,26.27
2018-09-05T06:17:52.017Z,22.67
2018-09-05T06:22:55.280Z,22.67
2018-09-05T06:27:58.430Z,21.73
2018-09-05T06:33:01.530Z,33.30
2018-09-05T06:38:04.631Z,23.50
2018-09-05T06:43:07.733Z,19.30
2018-09-05T06:48:10.830Z,15.83
2018-09-05T06:53:13.907Z,14.60
2018-09-05T06:58:17.004Z,15.30
2018-09-05T07:03:20.361Z,17.03
2018-09-05T07:08:23.456Z,12.63
2018-09-05T07:13:26.517Z,12.67
2018-09-05T07:18:29.601Z,15.43
2018-09-05T07:23:32.716Z,10.87
2018-09-05T07:28:35.821Z,10.17
2018-09-05T07:33:38.912Z,10.43
2018-09-05T07:38:42.042Z,13.40
2018-09-05T07:43:45.176Z,12.53
2018-09-05T07:48:48.285Z,11.37
2018-09-05T07:53:51.400Z,10.63
2018-09-05T07:58:54.513Z,11.30
2018-09-05T08:03:57.836Z,9.13
2018-09-05T08:09:00.937Z,9.27
2018-09-05T08:14:04.045Z,11.40
2018-09-05T08:19:07.147Z,8.57
2018-09-05T08:24:10.261Z,10.00
2018-09-05T08:29:13.406Z,9.10
2018-09-05T08:34:16.480Z,10.23
2018-09-05T08:39:19.574Z,9.50
2018-09-05T08:44:22.779Z,8.17
2018-09-05T08:49:25.757Z,8.53
2018-09-05T08:54:32.750Z,7.33
2018-09-05T08:59:35.849Z,8.23
2018-09-05T09:04:39.017Z,6.90
2018-09-05T09:09:42.056Z,5.20
2018-09-05T09:14:45.145Z,6.13
2018-09-05T09:19:48.263Z,5.70
2018-09-05T09:24:51.396Z,5.63
2018-09-05T09:29:54.525Z,5.40
2018-09-05T09:34:57.682Z,4.90
2018-09-05T09:40:00.786Z,4.30
2018-09-05T09:45:03.882Z,6.30
2018-09-05T09:50:06.971Z,5.43
2018-09-05T09:55:10.074Z,5.03
2018-09-05T10:00:17.421Z,5.37
2018-09-05T10:05:26.029Z,4.33
2018-09-05T10:10:34.579Z,4.07
2018-09-05T10:15:43.067Z,3.83
2018-09-05T10:20:46.152Z,6.03
2018-09-05T10:25:49.226Z,4.07
2018-09-05T10:30:52.292Z,5.73
2018-09-05T10:35:55.425Z,15.37
2018-09-05T10:40:58.525Z,4.43
2018-09-05T10:46:01.590Z,4.73
2018-09-05T10:51:04.810Z,3.60
2018-09-05T10:56:07.894Z,8.37
2018-09-05T11:01:10.998Z,6.67
2018-09-05T11:06:14.076Z,5.27
2018-09-05T11:11:17.193Z,4.37
2018-09-05T11:16:20.306Z,4.83
2018-09-05T11:21:23.461Z,5.47
2018-09-05T11:26:26.535Z,6.97
2018-09-05T11:31:29.634Z,6.27
2018-09-05T11:36:32.873Z,6.00
2018-09-05T11:41:35.974Z,4.17
2018-09-05T11:46:39.671Z,7.07
2018-09-05T11:51:42.781Z,5.37
2018-09-05T11:56:45.870Z,4.53
2018-09-05T12:01:48.970Z,4.07
2018-09-05T12:06:52.098Z,4.20
2018-09-05T12:11:55.223Z,4.63
2018-09-05T12:16:58.313Z,8.93
2018-09-05T12:22:01.396Z,4.20
2018-09-05T12:27:04.465Z,4.10
2018-09-05T12:32:07.521Z,5.20
2018-09-05T12:37:10.786Z,5.33
2018-09-05T12:42:13.866Z,3.37
2018-09-05T12:47:16.937Z,4.47
2018-09-05T12:52:20.021Z,5.47
2018-09-05T12:57:23.110Z,4.57
2018-09-05T13:02:26.190Z,9.00
2018-09-05T13:07:29.299Z,5.17
2018-09-05T13:12:32.422Z,5.27
2018-09-05T13:17:35.545Z,7.50
2018-09-05T13:22:38.646Z,4.53
2018-09-05T13:27:41.723Z,3.67
2018-09-05T13:32:44.791Z,4.10
2018-09-05T13:37:47.889Z,3.30
2018-09-05T13:42:50.978Z,6.17
2018-09-05T13:53:03.658Z,6.47
2018-09-05T13:58:06.734Z,4.17
2018-09-05T14:03:09.805Z,3.77
2018-09-05T14:08:12.953Z,11.97
2018-09-05T14:13:16.026Z,4.57
2018-09-05T14:18:19.097Z,3.63
2018-09-05T14:23:22.354Z,5.97
2018-09-05T14:28:25.495Z,5.07
2018-09-05T14:33:28.639Z,3.90
2018-09-05T14:38:31.761Z,3.00
2018-09-05T14:43:34.866Z,3.00
2018-09-05T14:48:37.992Z,2.93
2018-09-05T14:53:41.074Z,4.83
2018-09-05T14:58:44.169Z,3.00
2018-09-05T15:03:47.271Z,3.30
2018-09-05T15:08:50.381Z,4.20
2018-09-05T15:13:53.477Z,5.23
2018-09-05T15:18:56.568Z,4.30
2018-09-05T15:23:59.760Z,5.13
2018-09-05T15:29:02.930Z,6.47
2018-09-05T15:34:06.890Z,4.13
2018-09-05T15:39:10.801Z,2.53
2018-09-05T15:44:13.921Z,4.63
2018-09-05T15:49:17.114Z,4.03
2018-09-05T15:54:20.210Z,2.93
2018-09-05T15:59:24.052Z,4.83
2018-09-05T16:04:27.173Z,12.53
2018-09-05T16:09:30.320Z,2.73
2018-09-05T16:14:33.490Z,5.87
2018-09-05T16:19:36.704Z,9.10
2018-09-05T16:24:39.879Z,10.90
2018-09-05T16:29:43.042Z,12.73
2018-09-05T16:34:46.175Z,26.30
2018-09-05T16:39:49.307Z,12.57
2018-09-05T16:44:52.438Z,9.57
2018-09-05T16:49:55.836Z,8.53
2018-09-05T16:54:59.453Z,7.20
2018-09-05T17:00:02.554Z,7.33
2018-09-05T17:05:05.683Z,5.73
2018-09-05T17:10:08.783Z,7.13
2018-09-05T17:15:11.890Z,7.63
2018-09-05T17:20:15.056Z,5.20
2018-09-05T17:25:18.188Z,10.43
2018-09-05T17:30:21.704Z,8.77
2018-09-05T17:35:24.837Z,12.67
2018-09-05T17:40:27.938Z,6.57
2018-09-05T17:45:31.120Z,8.57
2018-09-05T17:50:34.254Z,8.67
2018-09-05T17:55:37.384Z,4.83
2018-09-05T18:00:42.022Z,9.13
2018-09-05T18:05:45.116Z,6.77
2018-09-05T18:10:48.252Z,12.13
2018-09-05T18:15:52.222Z,22.77
2018-09-05T18:20:55.398Z,14.80
2018-09-05T18:25:58.978Z,13.17
2018-09-05T18:31:02.753Z,14.63
2018-09-05T18:36:06.527Z,11.80
2018-09-05T18:41:10.299Z,7.97
2018-09-05T18:46:14.723Z,12.67
2018-09-05T18:56:27.894Z,7.80
2018-09-05T19:01:31.556Z,6.37
2018-09-05T19:06:35.228Z,16.67
2018-09-05T19:11:39.271Z,6.93
2018-09-05T19:16:43.042Z,9.17
2018-09-05T19:21:46.385Z,8.93
2018-09-05T19:26:49.944Z,5.33
2018-09-05T19:31:53.569Z,8.20
2018-09-05T19:36:56.892Z,8.40
2018-09-05T19:42:00.298Z,7.23
2018-09-05T19:47:03.535Z,8.23
2018-09-05T19:52:06.769Z,10.03
2018-09-05T19:57:10.147Z,7.10
2018-09-05T20:02:13.634Z,7.50
2018-09-05T20:07:16.741Z,11.40
2018-09-05T20:12:20.318Z,8.23
2018-09-05T20:17:23.940Z,7.63
2018-09-05T20:22:27.594Z,6.53
2018-09-05T20:27:31.126Z,9.57
2018-09-05T20:32:34.264Z,5.50
2018-09-05T20:37:37.489Z,10.27
2018-09-05T20:42:40.657Z,8.53
2018-09-05T20:47:44.817Z,8.23
2018-09-05T20:52:48.469Z,8.63
2018-09-05T20:57:51.947Z,5.00
2018-09-05T21:02:55.093Z,5.63
2018-09-05T21:07:58.197Z,6.53
2018-09-05T21:13:01.291Z,5.80
2018-09-05T21:18:04.494Z,7.00
2018-09-05T21:23:07.720Z,9.53
2018-09-05T21:28:10.784Z,7.67
2018-09-05T21:33:14.006Z,6.40
2018-09-05T21:38:17.088Z,6.50
2018-09-05T21:43:20.283Z,7.40
2018-09-05T21:48:23.699Z,9.47
2018-09-05T21:53:26.935Z,7.23
2018-09-05T21:58:30.337Z,9.93
2018-09-05T22:03:33.431Z,7.03
2018-09-05T22:08:36.675Z,7.33
2018-09-05T22:13:40.106Z,10.60
2018-09-05T22:18:43.408Z,8.23
2018-09-05T22:23:46.703Z,7.37
2018-09-05T22:28:49.943Z,6.90
2018-09-05T22:33:53.038Z,5.67
2018-09-05T22:38:56.104Z,6.67
2018-09-05T22:44:10.795Z,8.27
2018-09-05T22:51:40.387Z,8.17
2018-09-05T22:58:09.614Z,7.63
2018-09-05T23:03:24.145Z,9.13
2018-09-05T23:08:33.742Z,8.73
2018-09-05T23:13:48.397Z,16.47
2018-09-05T23:19:06.872Z,8.73
2018-09-05T23:24:10.697Z,10.30
2018-09-05T23:29:13.841Z,8.73
2018-09-05T23:34:16.970Z,11.13
2018-09-05T23:39:20.087Z,9.20
2018-09-05T23:44:23.342Z,12.57
2018-09-05T23:49:26.452Z,14.87
2018-09-05T23:54:29.586Z,8.30
2018-09-05T23:59:32.747Z,10.03
